Historyczne dane pomiarowe

Dodano dane terminowe – wersja testowa.

Dane z okresu 1951-2019

Wersja bazy: 1.34 [2019-03-16, lista zmian], aktualizacja planowana na 2019-04-15

Dane meteo z obszaru Polski uzyskane na podstawie danych udostępnionych przez Instytut Meteorologii i Gospodarki Wodnej – Państwowy Instytut Badawczy.

 

Wybierz Datę:    

       

TemperaturaWilgotnośćZachmurzenieWiatrCiśnienieWidzialnośćZjawiska
 Data    tng td wb rh cc ccl cl cm ch dir g1 g2 mslp ppp      
1994-06-24 00:00:00 6.2--- 4.1 5.286wxwxwx1wx--1024.3 982.2 0.0---wx
1994-06-24 01:00:00 5.7--- 3.7 4.887wxwxwx0wx--1024.5 982.3----wx
1994-06-24 02:00:00 4.6--- 2.6 3.787wxwxwx0wx--1024.5 982.2----wx
1994-06-24 03:00:00 3.2--- 0.8 2.284wxwx0wx--1024.7 982.2----wx
1994-06-24 04:00:00 3.5--- 2.1 2.991wxwx0wx--1024.6 982.1----wx
1994-06-24 05:00:00 7.6--- 5.8 6.788wxwx0wx--1023.9 982.0----wx
1994-06-24 06:00:00 11.2--- 5.6 8.468wxwx0wx--1023.1 981.8 0.0---wx
1994-06-24 07:00:00 14.0--- 3.9 9.050wxwx2wx--1022.6 981.7----wx
1994-06-24 08:00:00 14.9--- 1.3 8.540wxwx4wx--1022.3 981.5----wx
1994-06-24 09:00:00 16.0--- 1.8 9.238wxwxwx2wx--1022.1 981.5----wx
1994-06-24 10:00:00 16.9--- 0.9 9.334wxwxwx4wx--1022.0 981.5----wx
1994-06-24 11:00:00 17.4--- -3.9 8.223wxwxwxwx4wx--1021.3 980.9----wx
1994-06-24 12:00:00 18.7--- -0.6 9.727wxwxwx5wx--1020.8 980.6 0.0---wx
1994-06-24 13:00:00 19.2--- -0.7 9.926wxwxwx4wx--1020.4 980.3----wx
1994-06-24 14:00:00 19.9--- 1.6 10.930wxwxwx2wx--1019.9 979.9----wx
1994-06-24 15:00:00 20.0--- 2.7 11.332wxwx3wx--1019.6 979.6----wx
1994-06-24 16:00:00 19.7--- 0.6 10.528wxwx2wx--1019.3 979.3----wx
1994-06-24 17:00:00 19.4--- 0.7 10.429wxwx2wx--1019.2 979.2----wx
1994-06-24 18:00:00 18.8--- 1.6 10.432wxwx1wx--1019.1 979.0 0.0---wx
1994-06-24 19:00:00 14.1--- 2.9 8.747wxwx0wx--1019.7 978.9----wx
1994-06-24 20:00:00 11.6--- 7.0 9.273wxwx0wx--1020.7 979.5----wx
1994-06-24 21:00:00 8.8--- 5.5 7.280wxwx0wx--1021.3 979.7----wx
1994-06-24 22:00:00 7.5--- 5.2 6.485wxwx0wx--1021.5 979.7----wx
1994-06-24 23:00:00 6.0--- 4.3 5.289wxwx0wx--1021.8 979.8----wx

 

Źródłem pochodzenia danych jest Instytut Meteorologii i Gospodarki Wodnej – Państwowy Instytut Badawczy. Dane Instytutu Meteorologii i Gospodarki Wodnej – Państwowego Instytutu Badawczego zostały przetworzone.

Dane źródłowe można odnaleźć na stronie https://dane.imgw.pl